sensor_id;sensor_type;location;lat;lon;timestamp;P1;durP1;ratioP1;P2;durP2;ratioP2
26102;SDS011;69760;49.380;8.998;2023-05-07T00:07:32;1.27;;;1.17;;
26102;SDS011;69760;49.380;8.998;2023-05-07T00:09:57;1.10;;;1.00;;
26102;SDS011;69760;49.380;8.998;2023-05-07T00:12:23;2.42;;;1.30;;
26102;SDS011;69760;49.380;8.998;2023-05-07T00:14:48;1.88;;;1.38;;
26102;SDS011;69760;49.380;8.998;2023-05-07T00:17:14;1.45;;;1.30;;
26102;SDS011;69760;49.380;8.998;2023-05-07T00:19:40;1.20;;;1.10;;
26102;SDS011;69760;49.380;8.998;2023-05-07T00:53:09;1.33;;;1.20;;
26102;SDS011;69760;49.380;8.998;2023-05-07T00:55:35;1.58;;;1.10;;
26102;SDS011;69760;49.380;8.998;2023-05-07T00:58:01;1.70;;;1.25;;
26102;SDS011;69760;49.380;8.998;2023-05-07T01:00:27;2.63;;;1.40;;
26102;SDS011;69760;49.380;8.998;2023-05-07T01:13:14;1.30;;;1.20;;
26102;SDS011;69760;49.380;8.998;2023-05-07T01:15:40;1.30;;;1.10;;
26102;SDS011;69760;49.380;8.998;2023-05-07T01:18:06;1.10;;;0.93;;
26102;SDS011;69760;49.380;8.998;2023-05-07T01:20:32;2.40;;;1.27;;
26102;SDS011;69760;49.380;8.998;2023-05-07T03:50:33;1.10;;;1.00;;
26102;SDS011;69760;49.380;8.998;2023-05-07T03:52:59;1.00;;;0.90;;
26102;SDS011;69760;49.380;8.998;2023-05-07T03:55:24;1.50;;;1.20;;
26102;SDS011;69760;49.380;8.998;2023-05-07T03:57:50;1.10;;;1.00;;
26102;SDS011;69760;49.380;8.998;2023-05-07T04:00:16;1.42;;;1.00;;
26102;SDS011;69760;49.380;8.998;2023-05-07T04:15:38;1.30;;;1.20;;
26102;SDS011;69760;49.380;8.998;2023-05-07T04:18:04;1.40;;;1.08;;
26102;SDS011;69760;49.380;8.998;2023-05-07T04:20:29;2.17;;;1.00;;
26102;SDS011;69760;49.380;8.998;2023-05-07T04:35:52;2.10;;;1.33;;
26102;SDS011;69760;49.380;8.998;2023-05-07T04:38:17;1.98;;;0.93;;
26102;SDS011;69760;49.380;8.998;2023-05-07T04:40:43;1.63;;;1.20;;
26102;SDS011;69760;49.380;8.998;2023-05-07T04:43:09;1.00;;;0.90;;
26102;SDS011;69760;49.380;8.998;2023-05-07T04:45:35;1.95;;;1.00;;
26102;SDS011;69760;49.380;8.998;2023-05-07T04:48:01;1.30;;;1.10;;
26102;SDS011;69760;49.380;8.998;2023-05-07T04:50:27;2.20;;;1.08;;
26102;SDS011;69760;49.380;8.998;2023-05-07T05:00:39;2.05;;;1.30;;
26102;SDS011;69760;49.380;8.998;2023-05-07T06:08:30;2.40;;;1.10;;
26102;SDS011;69760;49.380;8.998;2023-05-07T06:10:56;1.83;;;1.20;;
26102;SDS011;69760;49.380;8.998;2023-05-07T06:18:59;1.63;;;1.30;;
26102;SDS011;69760;49.380;8.998;2023-05-07T06:21:24;1.42;;;1.20;;
26102;SDS011;69760;49.380;8.998;2023-05-07T06:23:50;1.50;;;1.17;;
26102;SDS011;69760;49.380;8.998;2023-05-07T06:26:17;1.65;;;1.10;;
26102;SDS011;69760;49.380;8.998;2023-05-07T06:28:42;1.88;;;1.20;;
26102;SDS011;69760;49.380;8.998;2023-05-07T06:31:14;2.03;;;1.20;;
26102;SDS011;69760;49.380;8.998;2023-05-07T06:33:41;2.00;;;1.40;;
26102;SDS011;69760;49.380;8.998;2023-05-07T06:36:07;2.47;;;1.20;;
26102;SDS011;69760;49.380;8.998;2023-05-07T06:38:33;2.17;;;1.52;;
26102;SDS011;69760;49.380;8.998;2023-05-07T06:40:58;2.65;;;1.20;;
26102;SDS011;69760;49.380;8.998;2023-05-07T08:06:13;1.40;;;1.23;;
26102;SDS011;69760;49.380;8.998;2023-05-07T08:15:19;1.38;;;1.20;;
26102;SDS011;69760;49.380;8.998;2023-05-07T08:17:45;2.20;;;1.25;;
26102;SDS011;69760;49.380;8.998;2023-05-07T08:20:10;1.35;;;1.10;;
26102;SDS011;69760;49.380;8.998;2023-05-07T08:22:36;2.47;;;1.40;;
26102;SDS011;69760;49.380;8.998;2023-05-07T08:25:02;1.45;;;1.20;;
26102;SDS011;69760;49.380;8.998;2023-05-07T08:27:28;2.50;;;1.45;;
26102;SDS011;69760;49.380;8.998;2023-05-07T08:29:53;2.17;;;1.70;;
26102;SDS011;69760;49.380;8.998;2023-05-07T08:32:19;2.42;;;1.40;;
26102;SDS011;69760;49.380;8.998;2023-05-07T08:34:45;1.55;;;1.42;;
26102;SDS011;69760;49.380;8.998;2023-05-07T08:37:11;2.13;;;1.60;;
26102;SDS011;69760;49.380;8.998;2023-05-07T08:39:37;3.15;;;1.75;;
26102;SDS011;69760;49.380;8.998;2023-05-07T08:42:03;3.58;;;1.70;;
26102;SDS011;69760;49.380;8.998;2023-05-07T08:44:33;1.52;;;1.40;;
26102;SDS011;69760;49.380;8.998;2023-05-07T08:47:00;2.40;;;1.67;;
26102;SDS011;69760;49.380;8.998;2023-05-07T08:49:27;1.83;;;1.60;;
26102;SDS011;69760;49.380;8.998;2023-05-07T08:51:53;2.22;;;1.75;;
26102;SDS011;69760;49.380;8.998;2023-05-07T08:54:20;2.75;;;1.63;;
26102;SDS011;69760;49.380;8.998;2023-05-07T08:56:46;2.47;;;1.80;;
26102;SDS011;69760;49.380;8.998;2023-05-07T08:59:11;4.20;;;1.70;;
26102;SDS011;69760;49.380;8.998;2023-05-07T09:01:37;1.73;;;1.55;;
26102;SDS011;69760;49.380;8.998;2023-05-07T09:04:03;2.50;;;1.70;;
26102;SDS011;69760;49.380;8.998;2023-05-07T09:06:29;1.60;;;1.50;;
26102;SDS011;69760;49.380;8.998;2023-05-07T09:08:55;1.58;;;1.40;;
26102;SDS011;69760;49.380;8.998;2023-05-07T09:11:21;1.40;;;1.27;;
26102;SDS011;69760;49.380;8.998;2023-05-07T09:13:48;1.58;;;1.48;;
26102;SDS011;69760;49.380;8.998;2023-05-07T09:16:15;1.88;;;1.60;;
26102;SDS011;69760;49.380;8.998;2023-05-07T09:18:41;2.03;;;1.70;;
26102;SDS011;69760;49.380;8.998;2023-05-07T09:21:11;1.92;;;1.58;;
26102;SDS011;69760;49.380;8.998;2023-05-07T09:23:40;2.15;;;1.70;;
26102;SDS011;69760;49.380;8.998;2023-05-07T09:26:06;2.03;;;1.83;;
26102;SDS011;69760;49.380;8.998;2023-05-07T09:28:37;1.70;;;1.60;;
26102;SDS011;69760;49.380;8.998;2023-05-07T09:31:07;4.65;;;1.60;;
26102;SDS011;69760;49.380;8.998;2023-05-07T09:33:33;2.05;;;1.80;;
26102;SDS011;69760;49.380;8.998;2023-05-07T09:36:01;1.90;;;1.60;;
26102;SDS011;69760;49.380;8.998;2023-05-07T09:38:28;1.80;;;1.70;;
26102;SDS011;69760;49.380;8.998;2023-05-07T09:41:04;2.08;;;1.50;;
26102;SDS011;69760;49.380;8.998;2023-05-07T09:43:34;1.95;;;1.63;;
26102;SDS011;69760;49.380;8.998;2023-05-07T09:46:07;2.10;;;1.77;;
26102;SDS011;69760;49.380;8.998;2023-05-07T09:48:37;1.85;;;1.60;;
26102;SDS011;69760;49.380;8.998;2023-05-07T09:51:06;1.73;;;1.60;;
26102;SDS011;69760;49.380;8.998;2023-05-07T09:53:37;1.75;;;1.45;;
26102;SDS011;69760;49.380;8.998;2023-05-07T09:56:04;1.92;;;1.70;;
26102;SDS011;69760;49.380;8.998;2023-05-07T09:58:30;1.70;;;1.60;;
26102;SDS011;69760;49.380;8.998;2023-05-07T10:00:58;1.90;;;1.70;;
26102;SDS011;69760;49.380;8.998;2023-05-07T10:03:25;3.08;;;1.70;;
26102;SDS011;69760;49.380;8.998;2023-05-07T10:05:54;1.88;;;1.60;;
26102;SDS011;69760;49.380;8.998;2023-05-07T10:08:19;1.75;;;1.60;;
26102;SDS011;69760;49.380;8.998;2023-05-07T10:10:45;2.08;;;1.88;;
26102;SDS011;69760;49.380;8.998;2023-05-07T10:13:11;2.25;;;1.75;;
26102;SDS011;69760;49.380;8.998;2023-05-07T10:15:38;2.05;;;1.70;;
26102;SDS011;69760;49.380;8.998;2023-05-07T10:18:04;2.00;;;1.70;;
26102;SDS011;69760;49.380;8.998;2023-05-07T10:20:33;2.13;;;1.83;;
26102;SDS011;69760;49.380;8.998;2023-05-07T10:22:59;1.98;;;1.77;;
26102;SDS011;69760;49.380;8.998;2023-05-07T10:25:30;8.63;;;2.20;;
26102;SDS011;69760;49.380;8.998;2023-05-07T10:28:01;8.73;;;2.15;;
26102;SDS011;69760;49.380;8.998;2023-05-07T10:32:57;2.10;;;1.80;;
26102;SDS011;69760;49.380;8.998;2023-05-07T10:35:31;4.25;;;1.92;;
26102;SDS011;69760;49.380;8.998;2023-05-07T10:38:00;2.13;;;1.83;;
26102;SDS011;69760;49.380;8.998;2023-05-07T10:40:26;4.15;;;1.90;;
26102;SDS011;69760;49.380;8.998;2023-05-07T10:42:59;2.58;;;1.63;;
26102;SDS011;69760;49.380;8.998;2023-05-07T10:45:25;2.47;;;2.08;;
26102;SDS011;69760;49.380;8.998;2023-05-07T10:51:20;3.53;;;1.73;;
26102;SDS011;69760;49.380;8.998;2023-05-07T10:53:46;3.38;;;1.60;;
26102;SDS011;69760;49.380;8.998;2023-05-07T10:58:44;1.60;;;1.50;;
26102;SDS011;69760;49.380;8.998;2023-05-07T11:01:09;1.95;;;1.75;;
26102;SDS011;69760;49.380;8.998;2023-05-07T11:03:37;1.70;;;1.60;;
26102;SDS011;69760;49.380;8.998;2023-05-07T11:06:39;3.25;;;1.70;;
26102;SDS011;69760;49.380;8.998;2023-05-07T11:09:05;2.20;;;1.67;;
26102;SDS011;69760;49.380;8.998;2023-05-07T11:11:46;2.00;;;1.80;;
26102;SDS011;69760;49.380;8.998;2023-05-07T11:14:42;2.85;;;1.88;;
26102;SDS011;69760;49.380;8.998;2023-05-07T11:17:10;2.20;;;1.67;;
26102;SDS011;69760;49.380;8.998;2023-05-07T11:19:55;2.42;;;1.75;;
26102;SDS011;69760;49.380;8.998;2023-05-07T11:24:56;2.40;;;1.85;;
26102;SDS011;69760;49.380;8.998;2023-05-07T11:27:25;2.42;;;1.63;;
26102;SDS011;69760;49.380;8.998;2023-05-07T11:29:52;1.80;;;1.70;;
26102;SDS011;69760;49.380;8.998;2023-05-07T11:32:30;2.42;;;1.85;;
26102;SDS011;69760;49.380;8.998;2023-05-07T11:34:57;2.95;;;1.95;;
26102;SDS011;69760;49.380;8.998;2023-05-07T11:37:25;4.35;;;1.88;;
26102;SDS011;69760;49.380;8.998;2023-05-07T11:40:05;2.35;;;1.80;;
26102;SDS011;69760;49.380;8.998;2023-05-07T11:42:36;1.92;;;1.83;;
26102;SDS011;69760;49.380;8.998;2023-05-07T11:45:03;2.15;;;1.60;;
26102;SDS011;69760;49.380;8.998;2023-05-07T11:47:30;2.35;;;1.65;;
26102;SDS011;69760;49.380;8.998;2023-05-07T11:49:56;2.53;;;1.92;;
26102;SDS011;69760;49.380;8.998;2023-05-07T11:52:26;2.10;;;1.90;;
26102;SDS011;69760;49.380;8.998;2023-05-07T11:54:52;2.88;;;1.92;;
26102;SDS011;69760;49.380;8.998;2023-05-07T11:57:20;2.28;;;2.08;;
26102;SDS011;69760;49.380;8.998;2023-05-07T11:59:46;2.00;;;1.80;;
26102;SDS011;69760;49.380;8.998;2023-05-07T12:02:15;3.22;;;2.10;;
26102;SDS011;69760;49.380;8.998;2023-05-07T12:04:41;3.45;;;1.70;;
26102;SDS011;69760;49.380;8.998;2023-05-07T12:07:14;1.65;;;1.55;;
26102;SDS011;69760;49.380;8.998;2023-05-07T12:09:44;2.50;;;1.77;;
26102;SDS011;69760;49.380;8.998;2023-05-07T12:12:10;1.95;;;1.70;;
26102;SDS011;69760;49.380;8.998;2023-05-07T12:14:43;1.95;;;1.70;;
26102;SDS011;69760;49.380;8.998;2023-05-07T12:17:11;2.22;;;1.88;;
26102;SDS011;69760;49.380;8.998;2023-05-07T12:19:38;1.65;;;1.55;;
26102;SDS011;69760;49.380;8.998;2023-05-07T12:22:09;1.90;;;1.70;;
26102;SDS011;69760;49.380;8.998;2023-05-07T12:24:45;1.80;;;1.63;;
26102;SDS011;69760;49.380;8.998;2023-05-07T12:27:11;2.90;;;1.83;;
26102;SDS011;69760;49.380;8.998;2023-05-07T12:29:37;1.60;;;1.50;;
26102;SDS011;69760;49.380;8.998;2023-05-07T12:32:12;2.05;;;1.60;;
26102;SDS011;69760;49.380;8.998;2023-05-07T12:34:42;2.08;;;1.60;;
26102;SDS011;69760;49.380;8.998;2023-05-07T12:37:08;2.58;;;1.50;;
26102;SDS011;69760;49.380;8.998;2023-05-07T12:39:33;1.60;;;1.50;;
26102;SDS011;69760;49.380;8.998;2023-05-07T12:41:59;1.70;;;1.60;;
26102;SDS011;69760;49.380;8.998;2023-05-07T12:44:25;1.80;;;1.70;;
26102;SDS011;69760;49.380;8.998;2023-05-07T12:46:55;1.83;;;1.73;;
26102;SDS011;69760;49.380;8.998;2023-05-07T12:49:20;1.73;;;1.50;;
26102;SDS011;69760;49.380;8.998;2023-05-07T12:51:46;1.70;;;1.60;;
26102;SDS011;69760;49.380;8.998;2023-05-07T12:54:13;1.60;;;1.50;;
26102;SDS011;69760;49.380;8.998;2023-05-07T12:56:59;1.60;;;1.50;;
26102;SDS011;69760;49.380;8.998;2023-05-07T12:59:39;1.88;;;1.70;;
26102;SDS011;69760;49.380;8.998;2023-05-07T13:02:06;2.08;;;1.88;;
26102;SDS011;69760;49.380;8.998;2023-05-07T13:04:32;1.80;;;1.58;;
26102;SDS011;69760;49.380;8.998;2023-05-07T13:06:59;2.10;;;1.65;;
26102;SDS011;69760;49.380;8.998;2023-05-07T13:09:25;3.15;;;1.60;;
26102;SDS011;69760;49.380;8.998;2023-05-07T13:11:50;1.65;;;1.50;;
26102;SDS011;69760;49.380;8.998;2023-05-07T13:14:16;2.13;;;1.58;;
26102;SDS011;69760;49.380;8.998;2023-05-07T13:16:42;2.00;;;1.80;;
26102;SDS011;69760;49.380;8.998;2023-05-07T13:19:07;2.05;;;1.85;;
26102;SDS011;69760;49.380;8.998;2023-05-07T13:21:33;1.95;;;1.75;;
26102;SDS011;69760;49.380;8.998;2023-05-07T13:23:58;1.85;;;1.75;;
26102;SDS011;69760;49.380;8.998;2023-05-07T13:26:24;1.77;;;1.50;;
26102;SDS011;69760;49.380;8.998;2023-05-07T13:28:51;1.70;;;1.58;;
26102;SDS011;69760;49.380;8.998;2023-05-07T13:31:17;2.13;;;1.83;;
26102;SDS011;69760;49.380;8.998;2023-05-07T13:33:43;1.88;;;1.70;;
26102;SDS011;69760;49.380;8.998;2023-05-07T13:36:08;1.95;;;1.70;;
26102;SDS011;69760;49.380;8.998;2023-05-07T13:38:34;2.10;;;1.90;;
26102;SDS011;69760;49.380;8.998;2023-05-07T13:41:00;1.60;;;1.50;;
26102;SDS011;69760;49.380;8.998;2023-05-07T13:43:25;1.63;;;1.52;;
26102;SDS011;69760;49.380;8.998;2023-05-07T13:45:51;2.38;;;1.52;;
26102;SDS011;69760;49.380;8.998;2023-05-07T13:48:16;1.80;;;1.50;;
26102;SDS011;69760;49.380;8.998;2023-05-07T13:50:42;1.70;;;1.60;;
26102;SDS011;69760;49.380;8.998;2023-05-07T13:53:07;1.60;;;1.50;;
26102;SDS011;69760;49.380;8.998;2023-05-07T13:55:33;1.80;;;1.60;;
26102;SDS011;69760;49.380;8.998;2023-05-07T13:57:59;1.58;;;1.48;;
26102;SDS011;69760;49.380;8.998;2023-05-07T14:00:27;1.88;;;1.58;;
26102;SDS011;69760;49.380;8.998;2023-05-07T14:02:54;2.17;;;1.98;;
26102;SDS011;69760;49.380;8.998;2023-05-07T14:05:20;1.80;;;1.70;;
26102;SDS011;69760;49.380;8.998;2023-05-07T14:07:50;1.90;;;1.75;;
26102;SDS011;69760;49.380;8.998;2023-05-07T14:10:16;1.60;;;1.50;;
26102;SDS011;69760;49.380;8.998;2023-05-07T14:12:43;1.80;;;1.60;;
26102;SDS011;69760;49.380;8.998;2023-05-07T14:15:10;1.50;;;1.40;;
26102;SDS011;69760;49.380;8.998;2023-05-07T14:17:35;1.77;;;1.67;;
26102;SDS011;69760;49.380;8.998;2023-05-07T14:20:01;1.70;;;1.60;;
26102;SDS011;69760;49.380;8.998;2023-05-07T14:22:27;1.90;;;1.50;;
26102;SDS011;69760;49.380;8.998;2023-05-07T14:24:52;1.52;;;1.42;;
26102;SDS011;69760;49.380;8.998;2023-05-07T14:27:18;1.60;;;1.50;;
26102;SDS011;69760;49.380;8.998;2023-05-07T14:29:43;1.42;;;1.30;;
26102;SDS011;69760;49.380;8.998;2023-05-07T14:32:10;1.67;;;1.50;;
26102;SDS011;69760;49.380;8.998;2023-05-07T14:34:36;3.53;;;1.80;;
26102;SDS011;69760;49.380;8.998;2023-05-07T14:37:01;2.28;;;1.63;;
26102;SDS011;69760;49.380;8.998;2023-05-07T14:39:27;2.00;;;1.80;;
26102;SDS011;69760;49.380;8.998;2023-05-07T14:41:52;1.90;;;1.70;;
26102;SDS011;69760;49.380;8.998;2023-05-07T14:44:19;3.00;;;1.83;;
26102;SDS011;69760;49.380;8.998;2023-05-07T14:46:45;2.00;;;1.80;;
26102;SDS011;69760;49.380;8.998;2023-05-07T14:49:11;2.17;;;1.80;;
26102;SDS011;69760;49.380;8.998;2023-05-07T14:51:42;2.90;;;1.83;;
26102;SDS011;69760;49.380;8.998;2023-05-07T14:54:11;2.65;;;1.50;;
26102;SDS011;69760;49.380;8.998;2023-05-07T14:56:37;4.75;;;1.90;;
26102;SDS011;69760;49.380;8.998;2023-05-07T14:59:04;1.92;;;1.77;;
26102;SDS011;69760;49.380;8.998;2023-05-07T15:01:30;3.13;;;1.83;;
26102;SDS011;69760;49.380;8.998;2023-05-07T15:15:01;2.15;;;1.30;;
26102;SDS011;69760;49.380;8.998;2023-05-07T15:17:26;1.77;;;1.50;;
26102;SDS011;69760;49.380;8.998;2023-05-07T15:19:52;2.63;;;1.52;;
26102;SDS011;69760;49.380;8.998;2023-05-07T15:22:18;1.88;;;1.40;;
26102;SDS011;69760;49.380;8.998;2023-05-07T15:24:44;2.05;;;1.60;;
26102;SDS011;69760;49.380;8.998;2023-05-07T15:27:09;3.28;;;1.50;;
26102;SDS011;69760;49.380;8.998;2023-05-07T15:29:35;1.70;;;1.48;;
26102;SDS011;69760;49.380;8.998;2023-05-07T15:32:01;2.00;;;1.63;;
26102;SDS011;69760;49.380;8.998;2023-05-07T15:34:26;2.10;;;1.67;;
26102;SDS011;69760;49.380;8.998;2023-05-07T15:36:52;3.28;;;2.33;;
26102;SDS011;69760;49.380;8.998;2023-05-07T15:39:17;2.17;;;1.65;;
26102;SDS011;69760;49.380;8.998;2023-05-07T15:41:43;2.40;;;1.70;;
26102;SDS011;69760;49.380;8.998;2023-05-07T15:44:18;4.13;;;1.70;;
26102;SDS011;69760;49.380;8.998;2023-05-07T15:46:43;2.72;;;1.70;;
26102;SDS011;69760;49.380;8.998;2023-05-07T15:49:09;2.15;;;1.85;;
26102;SDS011;69760;49.380;8.998;2023-05-07T15:51:35;2.30;;;1.95;;
26102;SDS011;69760;49.380;8.998;2023-05-07T15:54:01;4.20;;;1.73;;
26102;SDS011;69760;49.380;8.998;2023-05-07T15:56:26;2.97;;;1.80;;
26102;SDS011;69760;49.380;8.998;2023-05-07T15:58:52;2.65;;;1.55;;
26102;SDS011;69760;49.380;8.998;2023-05-07T16:01:17;1.83;;;1.60;;
26102;SDS011;69760;49.380;8.998;2023-05-07T16:03:43;1.73;;;1.60;;
26102;SDS011;69760;49.380;8.998;2023-05-07T16:06:09;2.33;;;1.65;;
26102;SDS011;69760;49.380;8.998;2023-05-07T16:08:37;1.83;;;1.60;;
26102;SDS011;69760;49.380;8.998;2023-05-07T16:11:04;3.20;;;1.95;;
26102;SDS011;69760;49.380;8.998;2023-05-07T16:13:30;2.72;;;1.70;;
26102;SDS011;69760;49.380;8.998;2023-05-07T16:15:55;1.60;;;1.50;;
26102;SDS011;69760;49.380;8.998;2023-05-07T16:18:25;2.83;;;2.10;;
26102;SDS011;69760;49.380;8.998;2023-05-07T16:20:50;3.35;;;1.50;;
26102;SDS011;69760;49.380;8.998;2023-05-07T16:23:16;3.30;;;1.60;;
26102;SDS011;69760;49.380;8.998;2023-05-07T16:25:42;4.68;;;1.90;;
26102;SDS011;69760;49.380;8.998;2023-05-07T16:28:07;1.83;;;1.63;;
26102;SDS011;69760;49.380;8.998;2023-05-07T16:30:33;1.67;;;1.52;;
26102;SDS011;69760;49.380;8.998;2023-05-07T16:46:18;1.20;;;0.80;;
26102;SDS011;69760;49.380;8.998;2023-05-07T16:48:43;1.30;;;0.95;;
26102;SDS011;69760;49.380;8.998;2023-05-07T16:51:09;1.90;;;0.90;;
26102;SDS011;69760;49.380;8.998;2023-05-07T16:53:34;0.95;;;0.85;;
26102;SDS011;69760;49.380;8.998;2023-05-07T16:56:04;1.75;;;0.98;;
26102;SDS011;69760;49.380;8.998;2023-05-07T16:58:29;1.17;;;0.80;;
26102;SDS011;69760;49.380;8.998;2023-05-07T17:00:57;0.75;;;0.70;;
26102;SDS011;69760;49.380;8.998;2023-05-07T17:03:23;1.48;;;1.05;;
26102;SDS011;69760;49.380;8.998;2023-05-07T17:05:48;0.80;;;0.80;;
26102;SDS011;69760;49.380;8.998;2023-05-07T17:08:14;1.13;;;0.70;;
26102;SDS011;69760;49.380;8.998;2023-05-07T17:10:40;1.02;;;0.90;;
26102;SDS011;69760;49.380;8.998;2023-05-07T17:13:05;1.25;;;0.98;;
26102;SDS011;69760;49.380;8.998;2023-05-07T17:15:31;1.00;;;0.90;;
26102;SDS011;69760;49.380;8.998;2023-05-07T17:17:57;1.65;;;0.98;;
26102;SDS011;69760;49.380;8.998;2023-05-07T17:20:22;1.40;;;1.10;;
26102;SDS011;69760;49.380;8.998;2023-05-07T17:22:49;1.02;;;0.93;;
26102;SDS011;69760;49.380;8.998;2023-05-07T17:25:14;1.02;;;0.90;;
26102;SDS011;69760;49.380;8.998;2023-05-07T17:27:40;1.70;;;1.00;;
26102;SDS011;69760;49.380;8.998;2023-05-07T17:30:06;1.40;;;0.90;;
26102;SDS011;69760;49.380;8.998;2023-05-07T17:32:32;1.15;;;0.88;;
26102;SDS011;69760;49.380;8.998;2023-05-07T17:34:59;1.30;;;1.02;;
26102;SDS011;69760;49.380;8.998;2023-05-07T17:37:25;1.52;;;1.00;;
26102;SDS011;69760;49.380;8.998;2023-05-07T17:39:51;2.28;;;1.10;;
26102;SDS011;69760;49.380;8.998;2023-05-07T17:42:16;0.88;;;0.88;;
26102;SDS011;69760;49.380;8.998;2023-05-07T17:44:42;1.48;;;1.13;;
26102;SDS011;69760;49.380;8.998;2023-05-07T17:47:08;1.95;;;1.00;;
26102;SDS011;69760;49.380;8.998;2023-05-07T17:49:33;2.15;;;1.25;;
26102;SDS011;69760;49.380;8.998;2023-05-07T17:52:01;1.25;;;1.08;;
26102;SDS011;69760;49.380;8.998;2023-05-07T17:54:26;1.20;;;1.10;;
26102;SDS011;69760;49.380;8.998;2023-05-07T17:56:52;1.23;;;1.08;;
26102;SDS011;69760;49.380;8.998;2023-05-07T17:59:18;1.42;;;1.00;;
26102;SDS011;69760;49.380;8.998;2023-05-07T18:01:43;1.33;;;1.00;;
26102;SDS011;69760;49.380;8.998;2023-05-07T18:04:09;1.02;;;0.90;;
26102;SDS011;69760;49.380;8.998;2023-05-07T18:06:34;3.85;;;1.27;;
26102;SDS011;69760;49.380;8.998;2023-05-07T18:09:00;1.73;;;1.00;;
26102;SDS011;69760;49.380;8.998;2023-05-07T18:11:26;0.90;;;0.90;;
26102;SDS011;69760;49.380;8.998;2023-05-07T18:13:52;1.33;;;1.02;;
26102;SDS011;69760;49.380;8.998;2023-05-07T18:16:18;2.17;;;1.10;;
26102;SDS011;69760;49.380;8.998;2023-05-07T18:18:43;2.50;;;1.08;;
26102;SDS011;69760;49.380;8.998;2023-05-07T18:21:11;2.05;;;0.95;;
26102;SDS011;69760;49.380;8.998;2023-05-07T18:23:42;1.10;;;0.90;;
26102;SDS011;69760;49.380;8.998;2023-05-07T18:26:09;1.48;;;0.98;;
26102;SDS011;69760;49.380;8.998;2023-05-07T18:28:35;1.00;;;1.00;;
26102;SDS011;69760;49.380;8.998;2023-05-07T18:31:00;1.17;;;1.00;;
26102;SDS011;69760;49.380;8.998;2023-05-07T18:33:26;1.00;;;0.90;;
26102;SDS011;69760;49.380;8.998;2023-05-07T18:35:51;1.50;;;1.00;;
26102;SDS011;69760;49.380;8.998;2023-05-07T18:38:18;1.10;;;1.00;;
26102;SDS011;69760;49.380;8.998;2023-05-07T18:40:44;1.45;;;1.17;;
26102;SDS011;69760;49.380;8.998;2023-05-07T18:43:09;1.35;;;1.25;;
26102;SDS011;69760;49.380;8.998;2023-05-07T18:45:35;1.45;;;1.15;;
26102;SDS011;69760;49.380;8.998;2023-05-07T18:48:02;1.10;;;0.90;;
26102;SDS011;69760;49.380;8.998;2023-05-07T18:50:28;1.55;;;1.00;;
26102;SDS011;69760;49.380;8.998;2023-05-07T18:52:54;2.55;;;0.93;;
26102;SDS011;69760;49.380;8.998;2023-05-07T18:55:20;2.13;;;1.08;;
26102;SDS011;69760;49.380;8.998;2023-05-07T18:57:46;1.30;;;1.10;;
26102;SDS011;69760;49.380;8.998;2023-05-07T19:00:13;0.80;;;0.80;;
26102;SDS011;69760;49.380;8.998;2023-05-07T19:02:39;1.88;;;1.00;;
26102;SDS011;69760;49.380;8.998;2023-05-07T19:05:04;1.70;;;1.10;;
26102;SDS011;69760;49.380;8.998;2023-05-07T19:07:30;1.33;;;1.00;;
26102;SDS011;69760;49.380;8.998;2023-05-07T19:09:56;1.33;;;0.98;;
26102;SDS011;69760;49.380;8.998;2023-05-07T19:12:22;1.10;;;1.00;;
26102;SDS011;69760;49.380;8.998;2023-05-07T19:14:48;0.95;;;0.90;;
26102;SDS011;69760;49.380;8.998;2023-05-07T19:17:14;1.77;;;1.10;;
26102;SDS011;69760;49.380;8.998;2023-05-07T19:19:42;1.30;;;1.10;;
26102;SDS011;69760;49.380;8.998;2023-05-07T19:22:12;1.77;;;1.15;;
26102;SDS011;69760;49.380;8.998;2023-05-07T19:24:40;1.25;;;1.15;;
26102;SDS011;69760;49.380;8.998;2023-05-07T19:27:06;2.00;;;1.10;;
26102;SDS011;69760;49.380;8.998;2023-05-07T19:29:32;1.40;;;1.10;;
26102;SDS011;69760;49.380;8.998;2023-05-07T19:31:58;1.63;;;1.20;;
26102;SDS011;69760;49.380;8.998;2023-05-07T19:34:24;1.98;;;1.20;;
26102;SDS011;69760;49.380;8.998;2023-05-07T19:36:50;1.73;;;1.30;;
26102;SDS011;69760;49.380;8.998;2023-05-07T19:39:15;1.70;;;1.10;;
26102;SDS011;69760;49.380;8.998;2023-05-07T19:41:41;1.30;;;1.20;;
26102;SDS011;69760;49.380;8.998;2023-05-07T19:44:06;1.70;;;1.00;;
26102;SDS011;69760;49.380;8.998;2023-05-07T19:46:32;1.27;;;1.17;;
26102;SDS011;69760;49.380;8.998;2023-05-07T19:48:58;2.30;;;1.20;;
26102;SDS011;69760;49.380;8.998;2023-05-07T19:51:23;1.08;;;0.98;;
26102;SDS011;69760;49.380;8.998;2023-05-07T19:53:49;2.03;;;1.17;;
26102;SDS011;69760;49.380;8.998;2023-05-07T19:56:15;1.30;;;1.20;;
26102;SDS011;69760;49.380;8.998;2023-05-07T19:58:41;1.30;;;1.20;;
26102;SDS011;69760;49.380;8.998;2023-05-07T20:01:06;1.45;;;1.17;;
26102;SDS011;69760;49.380;8.998;2023-05-07T20:03:32;1.85;;;1.40;;
26102;SDS011;69760;49.380;8.998;2023-05-07T20:05:58;1.67;;;1.48;;
26102;SDS011;69760;49.380;8.998;2023-05-07T20:08:24;2.35;;;1.15;;
26102;SDS011;69760;49.380;8.998;2023-05-07T20:10:51;3.72;;;1.17;;
26102;SDS011;69760;49.380;8.998;2023-05-07T20:13:17;2.50;;;1.20;;
26102;SDS011;69760;49.380;8.998;2023-05-07T20:15:42;1.70;;;1.27;;
26102;SDS011;69760;49.380;8.998;2023-05-07T20:18:08;1.45;;;1.35;;
26102;SDS011;69760;49.380;8.998;2023-05-07T20:20:34;1.38;;;1.20;;
26102;SDS011;69760;49.380;8.998;2023-05-07T20:23:00;1.30;;;1.20;;
26102;SDS011;69760;49.380;8.998;2023-05-07T20:25:25;1.40;;;1.10;;
26102;SDS011;69760;49.380;8.998;2023-05-07T20:27:51;1.30;;;1.20;;
26102;SDS011;69760;49.380;8.998;2023-05-07T20:30:17;1.98;;;1.40;;
26102;SDS011;69760;49.380;8.998;2023-05-07T20:32:44;1.70;;;1.45;;
26102;SDS011;69760;49.380;8.998;2023-05-07T20:35:10;1.73;;;1.10;;
26102;SDS011;69760;49.380;8.998;2023-05-07T20:37:37;2.40;;;1.13;;
26102;SDS011;69760;49.380;8.998;2023-05-07T20:40:03;1.48;;;1.10;;
